sensor_id;sensor_type;location;lat;lon;timestamp;P1;durP1;ratioP1;P2;durP2;ratioP2
18340;SDS011;9296;48.084;16.352;2023-02-13T00:00:58;26.20;;;15.60;;
18340;SDS011;9296;48.084;16.352;2023-02-13T00:03:26;26.13;;;15.95;;
18340;SDS011;9296;48.084;16.352;2023-02-13T00:05:54;29.90;;;16.65;;
18340;SDS011;9296;48.084;16.352;2023-02-13T00:11:25;31.15;;;17.08;;
18340;SDS011;9296;48.084;16.352;2023-02-13T00:13:52;29.73;;;16.90;;
18340;SDS011;9296;48.084;16.352;2023-02-13T00:16:19;30.50;;;17.20;;
18340;SDS011;9296;48.084;16.352;2023-02-13T00:18:46;29.02;;;16.73;;
18340;SDS011;9296;48.084;16.352;2023-02-13T00:21:15;29.20;;;17.63;;
18340;SDS011;9296;48.084;16.352;2023-02-13T00:26:45;29.42;;;16.70;;
18340;SDS011;9296;48.084;16.352;2023-02-13T00:29:12;31.08;;;17.10;;
18340;SDS011;9296;48.084;16.352;2023-02-13T00:31:39;30.05;;;17.42;;
18340;SDS011;9296;48.084;16.352;2023-02-13T00:34:07;30.15;;;17.50;;
18340;SDS011;9296;48.084;16.352;2023-02-13T00:42:43;29.45;;;16.75;;
18340;SDS011;9296;48.084;16.352;2023-02-13T00:45:10;32.10;;;18.25;;
18340;SDS011;9296;48.084;16.352;2023-02-13T00:47:37;33.58;;;17.55;;
18340;SDS011;9296;48.084;16.352;2023-02-13T00:50:04;33.42;;;17.55;;
18340;SDS011;9296;48.084;16.352;2023-02-13T00:58:29;29.95;;;16.17;;
18340;SDS011;9296;48.084;16.352;2023-02-13T01:00:56;28.75;;;16.23;;
18340;SDS011;9296;48.084;16.352;2023-02-13T01:03:23;32.38;;;17.35;;
18340;SDS011;9296;48.084;16.352;2023-02-13T01:05:51;29.60;;;16.90;;
18340;SDS011;9296;48.084;16.352;2023-02-13T01:08:19;30.30;;;16.50;;
18340;SDS011;9296;48.084;16.352;2023-02-13T01:10:46;29.73;;;16.40;;
18340;SDS011;9296;48.084;16.352;2023-02-13T01:13:14;33.33;;;16.85;;
18340;SDS011;9296;48.084;16.352;2023-02-13T01:15:44;31.08;;;16.60;;
18340;SDS011;9296;48.084;16.352;2023-02-13T01:18:11;32.05;;;17.13;;
18340;SDS011;9296;48.084;16.352;2023-02-13T01:20:38;29.25;;;16.92;;
18340;SDS011;9296;48.084;16.352;2023-02-13T01:26:10;30.02;;;16.13;;
18340;SDS011;9296;48.084;16.352;2023-02-13T01:28:38;31.45;;;16.35;;
18340;SDS011;9296;48.084;16.352;2023-02-13T01:31:07;30.95;;;15.52;;
18340;SDS011;9296;48.084;16.352;2023-02-13T01:33:34;28.98;;;15.68;;
18340;SDS011;9296;48.084;16.352;2023-02-13T01:36:04;29.70;;;15.35;;
18340;SDS011;9296;48.084;16.352;2023-02-13T01:38:32;31.67;;;16.35;;
18340;SDS011;9296;48.084;16.352;2023-02-13T01:40:59;29.77;;;16.40;;
18340;SDS011;9296;48.084;16.352;2023-02-13T01:43:41;32.45;;;16.38;;
18340;SDS011;9296;48.084;16.352;2023-02-13T01:46:10;31.17;;;16.63;;
18340;SDS011;9296;48.084;16.352;2023-02-13T01:48:37;33.00;;;16.98;;
18340;SDS011;9296;48.084;16.352;2023-02-13T01:51:05;30.70;;;15.82;;
18340;SDS011;9296;48.084;16.352;2023-02-13T01:56:37;32.05;;;16.42;;
18340;SDS011;9296;48.084;16.352;2023-02-13T01:59:07;31.27;;;16.20;;
18340;SDS011;9296;48.084;16.352;2023-02-13T02:01:37;29.23;;;15.07;;
18340;SDS011;9296;48.084;16.352;2023-02-13T02:04:05;31.08;;;15.43;;
18340;SDS011;9296;48.084;16.352;2023-02-13T02:06:34;29.30;;;15.05;;
18340;SDS011;9296;48.084;16.352;2023-02-13T02:12:06;27.75;;;15.73;;
18340;SDS011;9296;48.084;16.352;2023-02-13T02:14:35;30.95;;;15.00;;
18340;SDS011;9296;48.084;16.352;2023-02-13T02:17:04;29.25;;;14.77;;
18340;SDS011;9296;48.084;16.352;2023-02-13T02:19:34;27.58;;;15.30;;
18340;SDS011;9296;48.084;16.352;2023-02-13T02:28:16;27.60;;;14.77;;
18340;SDS011;9296;48.084;16.352;2023-02-13T02:33:39;27.48;;;14.38;;
18340;SDS011;9296;48.084;16.352;2023-02-13T02:36:13;28.10;;;14.98;;
18340;SDS011;9296;48.084;16.352;2023-02-13T02:38:46;27.67;;;15.10;;
18340;SDS011;9296;48.084;16.352;2023-02-13T02:41:19;30.00;;;15.70;;
18340;SDS011;9296;48.084;16.352;2023-02-13T02:44:06;27.63;;;14.75;;
18340;SDS011;9296;48.084;16.352;2023-02-13T02:46:36;26.50;;;14.75;;
18340;SDS011;9296;48.084;16.352;2023-02-13T02:49:26;26.88;;;13.35;;
18340;SDS011;9296;48.084;16.352;2023-02-13T02:55:17;26.02;;;12.88;;
18340;SDS011;9296;48.084;16.352;2023-02-13T02:57:48;22.42;;;11.55;;
18340;SDS011;9296;48.084;16.352;2023-02-13T03:00:36;22.83;;;11.00;;
18340;SDS011;9296;48.084;16.352;2023-02-13T03:03:23;24.95;;;11.93;;
18340;SDS011;9296;48.084;16.352;2023-02-13T03:06:11;19.23;;;10.68;;
18340;SDS011;9296;48.084;16.352;2023-02-13T03:11:43;19.60;;;10.90;;
18340;SDS011;9296;48.084;16.352;2023-02-13T03:14:29;18.35;;;10.70;;
18340;SDS011;9296;48.084;16.352;2023-02-13T03:16:56;20.15;;;10.65;;
18340;SDS011;9296;48.084;16.352;2023-02-13T03:19:51;17.23;;;10.43;;
18340;SDS011;9296;48.084;16.352;2023-02-13T03:22:43;20.67;;;9.98;;
18340;SDS011;9296;48.084;16.352;2023-02-13T03:25:14;19.95;;;10.30;;
18340;SDS011;9296;48.084;16.352;2023-02-13T03:27:58;18.67;;;10.50;;
18340;SDS011;9296;48.084;16.352;2023-02-13T03:30:50;17.02;;;10.07;;
18340;SDS011;9296;48.084;16.352;2023-02-13T03:33:29;18.17;;;9.75;;
18340;SDS011;9296;48.084;16.352;2023-02-13T03:36:01;17.55;;;9.90;;
18340;SDS011;9296;48.084;16.352;2023-02-13T03:39:04;17.58;;;9.63;;
18340;SDS011;9296;48.084;16.352;2023-02-13T03:41:35;16.90;;;9.27;;
18340;SDS011;9296;48.084;16.352;2023-02-13T03:44:07;16.50;;;9.90;;
18340;SDS011;9296;48.084;16.352;2023-02-13T03:46:37;16.98;;;10.23;;
18340;SDS011;9296;48.084;16.352;2023-02-13T03:49:06;19.45;;;10.82;;
18340;SDS011;9296;48.084;16.352;2023-02-13T03:51:55;19.48;;;11.05;;
18340;SDS011;9296;48.084;16.352;2023-02-13T03:57:29;18.02;;;10.18;;
18340;SDS011;9296;48.084;16.352;2023-02-13T04:02:47;17.80;;;10.68;;
18340;SDS011;9296;48.084;16.352;2023-02-13T04:05:17;18.60;;;11.25;;
18340;SDS011;9296;48.084;16.352;2023-02-13T04:07:46;22.80;;;11.25;;
18340;SDS011;9296;48.084;16.352;2023-02-13T04:10:14;23.52;;;11.38;;
18340;SDS011;9296;48.084;16.352;2023-02-13T04:12:45;19.35;;;10.88;;
18340;SDS011;9296;48.084;16.352;2023-02-13T04:15:15;20.60;;;10.88;;
18340;SDS011;9296;48.084;16.352;2023-02-13T04:17:44;20.60;;;11.30;;
18340;SDS011;9296;48.084;16.352;2023-02-13T04:20:12;19.65;;;10.40;;
18340;SDS011;9296;48.084;16.352;2023-02-13T04:28:48;20.30;;;10.48;;
18340;SDS011;9296;48.084;16.352;2023-02-13T04:31:15;17.60;;;9.27;;
18340;SDS011;9296;48.084;16.352;2023-02-13T04:33:42;15.60;;;9.02;;
18340;SDS011;9296;48.084;16.352;2023-02-13T04:36:09;15.98;;;8.57;;
18340;SDS011;9296;48.084;16.352;2023-02-13T04:38:55;20.63;;;8.57;;
18340;SDS011;9296;48.084;16.352;2023-02-13T04:41:22;14.20;;;8.10;;
18340;SDS011;9296;48.084;16.352;2023-02-13T04:43:51;13.38;;;7.95;;
18340;SDS011;9296;48.084;16.352;2023-02-13T04:46:18;17.83;;;7.95;;
18340;SDS011;9296;48.084;16.352;2023-02-13T04:48:45;15.40;;;8.07;;
18340;SDS011;9296;48.084;16.352;2023-02-13T04:51:12;15.98;;;7.75;;
18340;SDS011;9296;48.084;16.352;2023-02-13T04:59:37;13.55;;;7.70;;
18340;SDS011;9296;48.084;16.352;2023-02-13T05:02:04;13.38;;;7.53;;
18340;SDS011;9296;48.084;16.352;2023-02-13T05:04:31;13.60;;;7.97;;
18340;SDS011;9296;48.084;16.352;2023-02-13T05:06:58;15.15;;;7.75;;
18340;SDS011;9296;48.084;16.352;2023-02-13T05:12:29;15.93;;;7.43;;
18340;SDS011;9296;48.084;16.352;2023-02-13T05:14:57;15.50;;;7.25;;
18340;SDS011;9296;48.084;16.352;2023-02-13T05:17:24;12.85;;;7.47;;
18340;SDS011;9296;48.084;16.352;2023-02-13T05:19:52;13.20;;;7.20;;
18340;SDS011;9296;48.084;16.352;2023-02-13T05:22:19;13.70;;;6.90;;
18340;SDS011;9296;48.084;16.352;2023-02-13T05:25:04;12.95;;;7.93;;
18340;SDS011;9296;48.084;16.352;2023-02-13T05:27:31;14.95;;;8.52;;
18340;SDS011;9296;48.084;16.352;2023-02-13T05:29:59;15.30;;;8.00;;
18340;SDS011;9296;48.084;16.352;2023-02-13T05:32:27;16.85;;;8.43;;
18340;SDS011;9296;48.084;16.352;2023-02-13T05:34:54;18.48;;;10.38;;
18340;SDS011;9296;48.084;16.352;2023-02-13T05:37:21;21.92;;;10.18;;
18340;SDS011;9296;48.084;16.352;2023-02-13T05:42:52;21.38;;;11.20;;
18340;SDS011;9296;48.084;16.352;2023-02-13T05:45:21;20.58;;;10.95;;
18340;SDS011;9296;48.084;16.352;2023-02-13T05:47:49;20.05;;;11.18;;
18340;SDS011;9296;48.084;16.352;2023-02-13T05:50:16;18.02;;;10.70;;
18340;SDS011;9296;48.084;16.352;2023-02-13T05:52:45;21.50;;;11.27;;
18340;SDS011;9296;48.084;16.352;2023-02-13T05:58:16;19.08;;;10.70;;
18340;SDS011;9296;48.084;16.352;2023-02-13T06:00:45;19.75;;;10.88;;
18340;SDS011;9296;48.084;16.352;2023-02-13T06:03:12;21.75;;;10.35;;
18340;SDS011;9296;48.084;16.352;2023-02-13T06:05:39;18.10;;;10.57;;
18340;SDS011;9296;48.084;16.352;2023-02-13T06:11:10;17.20;;;9.10;;
18340;SDS011;9296;48.084;16.352;2023-02-13T06:13:38;18.35;;;9.57;;
18340;SDS011;9296;48.084;16.352;2023-02-13T06:16:06;17.35;;;9.25;;
18340;SDS011;9296;48.084;16.352;2023-02-13T06:18:34;19.85;;;9.43;;
18340;SDS011;9296;48.084;16.352;2023-02-13T06:21:01;15.60;;;8.88;;
18340;SDS011;9296;48.084;16.352;2023-02-13T06:23:28;19.05;;;9.75;;
18340;SDS011;9296;48.084;16.352;2023-02-13T06:25:55;16.73;;;8.70;;
18340;SDS011;9296;48.084;16.352;2023-02-13T06:28:23;16.13;;;8.50;;
18340;SDS011;9296;48.084;16.352;2023-02-13T06:30:50;22.67;;;8.65;;
18340;SDS011;9296;48.084;16.352;2023-02-13T06:33:18;17.77;;;9.85;;
18340;SDS011;9296;48.084;16.352;2023-02-13T06:35:45;20.88;;;9.55;;
18340;SDS011;9296;48.084;16.352;2023-02-13T06:44:20;17.77;;;8.05;;
18340;SDS011;9296;48.084;16.352;2023-02-13T06:46:47;15.82;;;8.27;;
18340;SDS011;9296;48.084;16.352;2023-02-13T06:49:15;15.35;;;8.00;;
18340;SDS011;9296;48.084;16.352;2023-02-13T06:51:43;19.55;;;9.00;;
18340;SDS011;9296;48.084;16.352;2023-02-13T06:54:10;15.68;;;9.05;;
18340;SDS011;9296;48.084;16.352;2023-02-13T06:56:37;16.75;;;9.35;;
18340;SDS011;9296;48.084;16.352;2023-02-13T06:59:04;15.23;;;8.45;;
18340;SDS011;9296;48.084;16.352;2023-02-13T07:01:31;17.80;;;8.95;;
18340;SDS011;9296;48.084;16.352;2023-02-13T07:03:59;19.02;;;9.70;;
18340;SDS011;9296;48.084;16.352;2023-02-13T07:06:27;19.15;;;9.48;;
18340;SDS011;9296;48.084;16.352;2023-02-13T07:08:54;17.77;;;9.57;;
18340;SDS011;9296;48.084;16.352;2023-02-13T07:11:22;17.38;;;9.68;;
18340;SDS011;9296;48.084;16.352;2023-02-13T07:13:50;20.00;;;9.85;;
18340;SDS011;9296;48.084;16.352;2023-02-13T07:16:17;18.80;;;9.80;;
18340;SDS011;9296;48.084;16.352;2023-02-13T07:18:45;17.60;;;10.50;;
18340;SDS011;9296;48.084;16.352;2023-02-13T07:21:12;18.65;;;9.93;;
18340;SDS011;9296;48.084;16.352;2023-02-13T07:23:42;17.67;;;9.88;;
18340;SDS011;9296;48.084;16.352;2023-02-13T07:26:09;16.58;;;9.45;;
18340;SDS011;9296;48.084;16.352;2023-02-13T07:28:36;19.20;;;11.25;;
18340;SDS011;9296;48.084;16.352;2023-02-13T07:31:04;21.35;;;12.15;;
18340;SDS011;9296;48.084;16.352;2023-02-13T07:33:31;17.58;;;10.38;;
18340;SDS011;9296;48.084;16.352;2023-02-13T07:35:58;16.95;;;9.80;;
18340;SDS011;9296;48.084;16.352;2023-02-13T07:38:27;14.85;;;7.57;;
18340;SDS011;9296;48.084;16.352;2023-02-13T07:40:58;13.50;;;7.90;;
18340;SDS011;9296;48.084;16.352;2023-02-13T07:43:25;15.23;;;7.38;;
18340;SDS011;9296;48.084;16.352;2023-02-13T07:45:53;12.68;;;7.13;;
18340;SDS011;9296;48.084;16.352;2023-02-13T07:48:20;12.18;;;6.93;;
18340;SDS011;9296;48.084;16.352;2023-02-13T07:50:48;11.40;;;7.05;;
18340;SDS011;9296;48.084;16.352;2023-02-13T07:53:15;10.70;;;7.15;;
18340;SDS011;9296;48.084;16.352;2023-02-13T07:58:47;12.02;;;7.18;;
18340;SDS011;9296;48.084;16.352;2023-02-13T08:01:15;14.52;;;7.65;;
18340;SDS011;9296;48.084;16.352;2023-02-13T08:03:46;13.98;;;7.72;;
18340;SDS011;9296;48.084;16.352;2023-02-13T08:06:15;12.73;;;7.43;;
18340;SDS011;9296;48.084;16.352;2023-02-13T08:14:34;12.90;;;7.18;;
18340;SDS011;9296;48.084;16.352;2023-02-13T08:17:01;10.05;;;6.03;;
18340;SDS011;9296;48.084;16.352;2023-02-13T08:19:28;11.82;;;6.95;;
18340;SDS011;9296;48.084;16.352;2023-02-13T08:21:56;12.65;;;6.90;;
18340;SDS011;9296;48.084;16.352;2023-02-13T08:30:31;11.85;;;6.82;;
18340;SDS011;9296;48.084;16.352;2023-02-13T08:32:58;11.75;;;6.72;;
18340;SDS011;9296;48.084;16.352;2023-02-13T08:35:26;11.40;;;6.47;;
18340;SDS011;9296;48.084;16.352;2023-02-13T08:37:55;12.35;;;6.70;;
18340;SDS011;9296;48.084;16.352;2023-02-13T08:40:22;11.70;;;6.20;;
18340;SDS011;9296;48.084;16.352;2023-02-13T08:42:50;10.95;;;6.88;;
18340;SDS011;9296;48.084;16.352;2023-02-13T08:45:17;13.40;;;7.32;;
18340;SDS011;9296;48.084;16.352;2023-02-13T08:47:46;13.23;;;7.22;;
18340;SDS011;9296;48.084;16.352;2023-02-13T08:50:13;11.75;;;6.57;;
18340;SDS011;9296;48.084;16.352;2023-02-13T08:52:40;9.88;;;6.18;;
18340;SDS011;9296;48.084;16.352;2023-02-13T08:55:26;11.13;;;6.18;;
18340;SDS011;9296;48.084;16.352;2023-02-13T08:57:53;8.80;;;6.30;;
18340;SDS011;9296;48.084;16.352;2023-02-13T09:00:21;11.27;;;6.50;;
18340;SDS011;9296;48.084;16.352;2023-02-13T09:02:49;12.52;;;6.90;;
18340;SDS011;9296;48.084;16.352;2023-02-13T09:05:16;13.23;;;6.65;;
18340;SDS011;9296;48.084;16.352;2023-02-13T09:07:44;12.48;;;6.72;;
18340;SDS011;9296;48.084;16.352;2023-02-13T09:13:14;13.68;;;6.63;;
18340;SDS011;9296;48.084;16.352;2023-02-13T09:15:41;11.85;;;6.88;;
18340;SDS011;9296;48.084;16.352;2023-02-13T09:18:10;10.85;;;6.65;;
18340;SDS011;9296;48.084;16.352;2023-02-13T09:20:37;9.77;;;6.50;;
18340;SDS011;9296;48.084;16.352;2023-02-13T09:23:04;13.18;;;7.55;;
18340;SDS011;9296;48.084;16.352;2023-02-13T09:28:34;12.45;;;6.75;;
18340;SDS011;9296;48.084;16.352;2023-02-13T09:31:03;12.55;;;7.07;;
18340;SDS011;9296;48.084;16.352;2023-02-13T09:33:32;11.38;;;6.82;;
18340;SDS011;9296;48.084;16.352;2023-02-13T09:36:02;12.15;;;6.75;;
18340;SDS011;9296;48.084;16.352;2023-02-13T09:38:29;10.93;;;7.38;;
18340;SDS011;9296;48.084;16.352;2023-02-13T09:40:57;11.45;;;6.93;;
18340;SDS011;9296;48.084;16.352;2023-02-13T09:43:27;10.57;;;6.78;;
18340;SDS011;9296;48.084;16.352;2023-02-13T09:45:55;13.55;;;7.18;;
18340;SDS011;9296;48.084;16.352;2023-02-13T09:48:23;11.95;;;7.53;;
18340;SDS011;9296;48.084;16.352;2023-02-13T09:50:55;10.13;;;7.20;;
18340;SDS011;9296;48.084;16.352;2023-02-13T09:53:23;10.38;;;6.60;;
18340;SDS011;9296;48.084;16.352;2023-02-13T09:58:57;10.85;;;6.85;;
18340;SDS011;9296;48.084;16.352;2023-02-13T10:01:27;11.27;;;6.68;;
18340;SDS011;9296;48.084;16.352;2023-02-13T10:04:10;13.73;;;7.07;;
18340;SDS011;9296;48.084;16.352;2023-02-13T10:06:44;11.43;;;6.78;;
18340;SDS011;9296;48.084;16.352;2023-02-13T10:09:16;12.35;;;6.13;;
18340;SDS011;9296;48.084;16.352;2023-02-13T10:11:55;11.38;;;6.30;;
18340;SDS011;9296;48.084;16.352;2023-02-13T10:14:28;9.00;;;5.95;;
18340;SDS011;9296;48.084;16.352;2023-02-13T10:16:58;8.85;;;5.68;;
18340;SDS011;9296;48.084;16.352;2023-02-13T10:19:30;9.75;;;6.05;;
18340;SDS011;9296;48.084;16.352;2023-02-13T10:22:00;10.75;;;5.40;;
18340;SDS011;9296;48.084;16.352;2023-02-13T10:24:32;9.77;;;5.60;;
18340;SDS011;9296;48.084;16.352;2023-02-13T10:27:02;8.82;;;5.32;;
18340;SDS011;9296;48.084;16.352;2023-02-13T10:29:35;8.50;;;5.47;;
18340;SDS011;9296;48.084;16.352;2023-02-13T10:32:23;8.15;;;4.90;;
18340;SDS011;9296;48.084;16.352;2023-02-13T10:34:51;9.98;;;5.72;;
18340;SDS011;9296;48.084;16.352;2023-02-13T10:37:20;7.97;;;5.20;;
18340;SDS011;9296;48.084;16.352;2023-02-13T10:40:08;8.68;;;5.25;;
18340;SDS011;9296;48.084;16.352;2023-02-13T10:42:38;10.05;;;5.80;;
18340;SDS011;9296;48.084;16.352;2023-02-13T10:45:14;8.00;;;5.35;;
18340;SDS011;9296;48.084;16.352;2023-02-13T10:47:50;6.75;;;4.78;;
18340;SDS011;9296;48.084;16.352;2023-02-13T10:50:21;12.30;;;8.07;;
18340;SDS011;9296;48.084;16.352;2023-02-13T10:52:52;7.32;;;5.22;;
18340;SDS011;9296;48.084;16.352;2023-02-13T10:58:46;9.02;;;5.53;;
18340;SDS011;9296;48.084;16.352;2023-02-13T11:01:16;7.18;;;4.90;;
18340;SDS011;9296;48.084;16.352;2023-02-13T11:03:45;6.57;;;4.50;;
18340;SDS011;9296;48.084;16.352;2023-02-13T11:06:15;6.82;;;4.35;;
18340;SDS011;9296;48.084;16.352;2023-02-13T11:08:46;9.32;;;5.13;;
18340;SDS011;9296;48.084;16.352;2023-02-13T11:11:29;7.43;;;4.22;;
18340;SDS011;9296;48.084;16.352;2023-02-13T11:14:06;7.85;;;3.97;;
18340;SDS011;9296;48.084;16.352;2023-02-13T11:16:42;6.63;;;4.15;;
18340;SDS011;9296;48.084;16.352;2023-02-13T11:19:15;5.95;;;4.30;;
18340;SDS011;9296;48.084;16.352;2023-02-13T11:21:42;8.85;;;5.00;;
18340;SDS011;9296;48.084;16.352;2023-02-13T11:24:17;5.85;;;4.45;;
18340;SDS011;9296;48.084;16.352;2023-02-13T11:27:22;7.50;;;4.32;;
18340;SDS011;9296;48.084;16.352;2023-02-13T11:29:51;6.22;;;4.32;;
18340;SDS011;9296;48.084;16.352;2023-02-13T11:32:19;6.65;;;4.68;;
18340;SDS011;9296;48.084;16.352;2023-02-13T11:34:47;7.63;;;4.60;;
18340;SDS011;9296;48.084;16.352;2023-02-13T11:37:18;6.63;;;4.13;;
18340;SDS011;9296;48.084;16.352;2023-02-13T11:42:34;4.85;;;3.60;;
18340;SDS011;9296;48.084;16.352;2023-02-13T11:45:02;5.45;;;3.90;;
18340;SDS011;9296;48.084;16.352;2023-02-13T11:47:37;5.30;;;4.13;;
18340;SDS011;9296;48.084;16.352;2023-02-13T11:50:06;5.47;;;3.92;;
18340;SDS011;9296;48.084;16.352;2023-02-13T11:52:50;6.15;;;3.97;;
18340;SDS011;9296;48.084;16.352;2023-02-13T11:55:26;5.80;;;4.03;;
18340;SDS011;9296;48.084;16.352;2023-02-13T11:57:58;4.75;;;3.53;;
18340;SDS011;9296;48.084;16.352;2023-02-13T12:00:27;6.97;;;4.15;;
18340;SDS011;9296;48.084;16.352;2023-02-13T12:02:56;5.80;;;4.38;;
18340;SDS011;9296;48.084;16.352;2023-02-13T12:05:24;6.18;;;4.70;;
18340;SDS011;9296;48.084;16.352;2023-02-13T12:07:52;7.60;;;4.90;;
18340;SDS011;9296;48.084;16.352;2023-02-13T12:13:26;8.00;;;5.45;;
18340;SDS011;9296;48.084;16.352;2023-02-13T12:15:57;7.45;;;4.72;;
18340;SDS011;9296;48.084;16.352;2023-02-13T12:18:25;6.93;;;5.10;;
18340;SDS011;9296;48.084;16.352;2023-02-13T12:20:56;7.47;;;5.18;;
18340;SDS011;9296;48.084;16.352;2023-02-13T12:23:28;6.53;;;4.60;;
18340;SDS011;9296;48.084;16.352;2023-02-13T12:28:54;11.57;;;4.75;;
18340;SDS011;9296;48.084;16.352;2023-02-13T12:31:36;6.65;;;4.53;;
18340;SDS011;9296;48.084;16.352;2023-02-13T12:34:10;6.95;;;4.97;;
18340;SDS011;9296;48.084;16.352;2023-02-13T12:36:43;6.45;;;4.35;;
18340;SDS011;9296;48.084;16.352;2023-02-13T12:39:16;6.70;;;4.45;;
18340;SDS011;9296;48.084;16.352;2023-02-13T12:44:50;6.68;;;4.50;;
18340;SDS011;9296;48.084;16.352;2023-02-13T12:47:21;6.40;;;4.43;;
18340;SDS011;9296;48.084;16.352;2023-02-13T12:50:05;7.72;;;4.57;;
18340;SDS011;9296;48.084;16.352;2023-02-13T12:52:38;6.45;;;4.70;;
18340;SDS011;9296;48.084;16.352;2023-02-13T12:58:17;6.60;;;4.90;;
18340;SDS011;9296;48.084;16.352;2023-02-13T13:00:51;6.38;;;4.47;;
18340;SDS011;9296;48.084;16.352;2023-02-13T13:03:32;7.78;;;4.30;;
18340;SDS011;9296;48.084;16.352;2023-02-13T13:06:03;6.70;;;4.40;;
18340;SDS011;9296;48.084;16.352;2023-02-13T13:14:24;7.40;;;4.50;;
18340;SDS011;9296;48.084;16.352;2023-02-13T13:16:56;11.23;;;4.85;;
18340;SDS011;9296;48.084;16.352;2023-02-13T13:19:27;6.07;;;4.05;;
18340;SDS011;9296;48.084;16.352;2023-02-13T13:21:56;6.88;;;4.38;;
18340;SDS011;9296;48.084;16.352;2023-02-13T13:24:39;6.63;;;4.35;;
18340;SDS011;9296;48.084;16.352;2023-02-13T13:32:41;6.53;;;3.97;;
18340;SDS011;9296;48.084;16.352;2023-02-13T13:35:11;6.07;;;4.13;;
18340;SDS011;9296;48.084;16.352;2023-02-13T13:37:39;5.88;;;4.50;;
18340;SDS011;9296;48.084;16.352;2023-02-13T13:40:15;5.88;;;3.97;;
18340;SDS011;9296;48.084;16.352;2023-02-13T13:42:49;7.43;;;4.20;;
18340;SDS011;9296;48.084;16.352;2023-02-13T13:45:21;5.70;;;4.13;;
18340;SDS011;9296;48.084;16.352;2023-02-13T13:48:00;5.63;;;3.97;;
18340;SDS011;9296;48.084;16.352;2023-02-13T13:50:31;14.13;;;4.47;;
18340;SDS011;9296;48.084;16.352;2023-02-13T13:53:07;6.28;;;4.28;;
18340;SDS011;9296;48.084;16.352;2023-02-13T13:58:21;6.18;;;4.07;;
18340;SDS011;9296;48.084;16.352;2023-02-13T14:03:35;6.07;;;4.15;;
18340;SDS011;9296;48.084;16.352;2023-02-13T14:06:04;6.95;;;4.10;;
18340;SDS011;9296;48.084;16.352;2023-02-13T14:11:51;5.95;;;3.88;;
18340;SDS011;9296;48.084;16.352;2023-02-13T14:17:16;7.10;;;4.72;;
18340;SDS011;9296;48.084;16.352;2023-02-13T14:20:14;6.18;;;4.20;;
18340;SDS011;9296;48.084;16.352;2023-02-13T14:22:42;5.80;;;4.00;;
18340;SDS011;9296;48.084;16.352;2023-02-13T14:25:18;5.47;;;3.80;;
18340;SDS011;9296;48.084;16.352;2023-02-13T14:27:54;5.35;;;3.03;;
18340;SDS011;9296;48.084;16.352;2023-02-13T14:30:25;5.10;;;3.30;;
18340;SDS011;9296;48.084;16.352;2023-02-13T14:32:52;4.63;;;3.47;;
18340;SDS011;9296;48.084;16.352;2023-02-13T14:35:22;4.22;;;3.17;;
18340;SDS011;9296;48.084;16.352;2023-02-13T14:37:50;4.20;;;3.03;;
18340;SDS011;9296;48.084;16.352;2023-02-13T14:46:19;4.57;;;3.20;;
18340;SDS011;9296;48.084;16.352;2023-02-13T14:48:50;4.80;;;3.60;;
18340;SDS011;9296;48.084;16.352;2023-02-13T14:51:21;6.30;;;3.72;;
18340;SDS011;9296;48.084;16.352;2023-02-13T14:53:53;6.05;;;3.80;;
18340;SDS011;9296;48.084;16.352;2023-02-13T14:59:44;4.78;;;3.20;;
18340;SDS011;9296;48.084;16.352;2023-02-13T15:02:17;4.47;;;3.28;;
18340;SDS011;9296;48.084;16.352;2023-02-13T15:04:48;5.35;;;3.60;;
18340;SDS011;9296;48.084;16.352;2023-02-13T15:07:18;5.03;;;3.20;;
18340;SDS011;9296;48.084;16.352;2023-02-13T15:09:48;5.05;;;3.50;;
18340;SDS011;9296;48.084;16.352;2023-02-13T15:15:22;4.95;;;3.38;;
18340;SDS011;9296;48.084;16.352;2023-02-13T15:17:49;5.30;;;3.53;;
18340;SDS011;9296;48.084;16.352;2023-02-13T15:20:19;5.82;;;3.50;;
18340;SDS011;9296;48.084;16.352;2023-02-13T15:22:50;5.13;;;3.47;;
18340;SDS011;9296;48.084;16.352;2023-02-13T15:25:22;7.18;;;3.92;;
18340;SDS011;9296;48.084;16.352;2023-02-13T15:27:50;4.55;;;3.35;;
18340;SDS011;9296;48.084;16.352;2023-02-13T15:30:20;6.32;;;4.07;;
18340;SDS011;9296;48.084;16.352;2023-02-13T15:32:52;9.05;;;3.80;;
18340;SDS011;9296;48.084;16.352;2023-02-13T15:35:21;4.55;;;3.20;;
18340;SDS011;9296;48.084;16.352;2023-02-13T15:37:48;5.57;;;3.53;;
18340;SDS011;9296;48.084;16.352;2023-02-13T15:40:19;4.22;;;3.25;;
18340;SDS011;9296;48.084;16.352;2023-02-13T15:43:05;5.20;;;3.50;;
18340;SDS011;9296;48.084;16.352;2023-02-13T15:45:43;4.72;;;3.63;;
18340;SDS011;9296;48.084;16.352;2023-02-13T15:48:12;5.43;;;3.65;;
18340;SDS011;9296;48.084;16.352;2023-02-13T15:50:40;5.00;;;3.42;;
18340;SDS011;9296;48.084;16.352;2023-02-13T15:53:09;4.80;;;3.38;;
18340;SDS011;9296;48.084;16.352;2023-02-13T15:55:40;6.40;;;3.78;;
18340;SDS011;9296;48.084;16.352;2023-02-13T15:58:08;5.93;;;4.03;;
18340;SDS011;9296;48.084;16.352;2023-02-13T16:00:38;8.50;;;4.35;;
18340;SDS011;9296;48.084;16.352;2023-02-13T16:03:10;11.88;;;4.60;;
18340;SDS011;9296;48.084;16.352;2023-02-13T16:05:39;5.55;;;3.97;;
18340;SDS011;9296;48.084;16.352;2023-02-13T16:08:23;5.28;;;3.92;;
18340;SDS011;9296;48.084;16.352;2023-02-13T16:13:35;6.10;;;4.00;;
18340;SDS011;9296;48.084;16.352;2023-02-13T16:16:06;6.43;;;3.85;;
18340;SDS011;9296;48.084;16.352;2023-02-13T16:18:34;6.25;;;4.25;;
18340;SDS011;9296;48.084;16.352;2023-02-13T16:21:01;5.43;;;3.55;;
18340;SDS011;9296;48.084;16.352;2023-02-13T16:23:29;6.25;;;3.78;;
18340;SDS011;9296;48.084;16.352;2023-02-13T16:29:01;5.32;;;3.53;;
18340;SDS011;9296;48.084;16.352;2023-02-13T16:31:28;5.05;;;3.55;;
18340;SDS011;9296;48.084;16.352;2023-02-13T16:33:56;5.57;;;3.80;;
18340;SDS011;9296;48.084;16.352;2023-02-13T16:36:25;8.20;;;4.70;;
18340;SDS011;9296;48.084;16.352;2023-02-13T16:38:54;9.48;;;4.90;;
18340;SDS011;9296;48.084;16.352;2023-02-13T16:41:28;8.13;;;4.57;;
18340;SDS011;9296;48.084;16.352;2023-02-13T16:43:56;7.75;;;4.43;;
18340;SDS011;9296;48.084;16.352;2023-02-13T16:46:26;6.80;;;4.30;;
18340;SDS011;9296;48.084;16.352;2023-02-13T16:49:14;6.72;;;4.43;;
18340;SDS011;9296;48.084;16.352;2023-02-13T16:51:42;7.00;;;4.68;;
18340;SDS011;9296;48.084;16.352;2023-02-13T16:54:15;8.65;;;4.93;;
18340;SDS011;9296;48.084;16.352;2023-02-13T16:56:45;7.45;;;4.88;;
18340;SDS011;9296;48.084;16.352;2023-02-13T16:59:18;6.72;;;4.25;;
18340;SDS011;9296;48.084;16.352;2023-02-13T17:01:48;7.50;;;4.63;;
18340;SDS011;9296;48.084;16.352;2023-02-13T17:04:18;7.47;;;5.05;;
18340;SDS011;9296;48.084;16.352;2023-02-13T17:06:45;8.45;;;4.75;;
18340;SDS011;9296;48.084;16.352;2023-02-13T17:09:13;7.38;;;4.43;;
18340;SDS011;9296;48.084;16.352;2023-02-13T17:11:58;7.53;;;4.82;;
18340;SDS011;9296;48.084;16.352;2023-02-13T17:14:25;5.93;;;4.15;;
18340;SDS011;9296;48.084;16.352;2023-02-13T17:16:54;9.80;;;5.07;;
18340;SDS011;9296;48.084;16.352;2023-02-13T17:19:21;6.10;;;4.07;;
18340;SDS011;9296;48.084;16.352;2023-02-13T17:21:48;6.82;;;4.50;;
18340;SDS011;9296;48.084;16.352;2023-02-13T17:24:17;8.00;;;4.90;;
18340;SDS011;9296;48.084;16.352;2023-02-13T17:27:03;11.02;;;6.75;;
18340;SDS011;9296;48.084;16.352;2023-02-13T17:29:30;11.68;;;7.30;;
18340;SDS011;9296;48.084;16.352;2023-02-13T17:31:58;7.57;;;4.60;;
18340;SDS011;9296;48.084;16.352;2023-02-13T17:34:25;10.55;;;5.47;;
18340;SDS011;9296;48.084;16.352;2023-02-13T17:36:53;8.10;;;5.63;;
18340;SDS011;9296;48.084;16.352;2023-02-13T17:39:20;8.52;;;5.70;;